Terminal Aerodrome Forecast
Issued by NWS Sterling, VA

Home | Current Version | Previous Version | Text Only | Print | Product List | Glossary On
Versions: 1 2 3 4 5 6 7 8 9 10 11 12 13 14 15 16 17 18 19 20 21 22 23 24 25 26 27 28 29 30 31 32
467
FTUS41 KLWX 290834 AAA
TAFIAD
TAF AMD
KIAD 290834Z 2909/3012 35008KT P6SM BKN025 BKN050
     FM291100 35008G15KT P6SM BKN025
     FM291300 35009G15KT P6SM SCT035
     FM291500 35009KT P6SM FEW040
     FM300600 03006KT P6SM SCT050=

USA.gov is the U.S. government's official web portal to all federal, state and local government web resources and services.